Time;durP1;ratioP1;P1;durP2;ratioP2;P2;SDS_P1;SDS_P2;PMS_P1;PMS_P2;Temp;Humidity;BMP_temperature;BMP_pressure;BME280_temperature;BME280_humidity;BME280_pressure;Samples;Min_cycle;Max_cycle;Signal;HPM_P1;HPM_P2
2021/09/25 00:01:09;;;;;;;5.63;4.07;;;;;;;14.39;96.24;100185.13;5054276;28;20311;-72
2021/09/25 00:03:36;;;;;;;6.07;4.15;;;;;;;14.40;96.41;100190.34;5036698;28;20041;-72
2021/09/25 00:06:04;;;;;;;4.40;3.83;;;;;;;14.38;96.59;100178.03;5054285;28;20441;-71
2021/09/25 00:08:31;;;;;;;5.95;4.13;;;;;;;14.30;96.84;100180.44;5053093;28;20052;-72
2021/09/25 00:10:57;;;;;;;6.25;4.32;;;;;;;14.33;96.97;100185.59;5054284;28;20100;-72
2021/09/25 00:13:24;;;;;;;6.07;3.90;;;;;;;14.30;97.02;100177.75;5058041;28;20105;-73
2021/09/25 00:15:51;;;;;;;6.40;4.80;;;;;;;14.28;96.97;100171.66;5057962;28;20040;-72
2021/09/25 00:18:18;;;;;;;6.20;4.20;;;;;;;14.25;97.04;100179.00;5056653;28;20049;-71
2021/09/25 00:20:45;;;;;;;6.93;4.15;;;;;;;14.08;97.35;100157.94;5058009;28;20438;-72
2021/09/25 00:23:13;;;;;;;8.07;4.53;;;;;;;14.14;97.45;100170.88;5057655;28;20103;-72
2021/09/25 00:25:40;;;;;;;6.30;4.05;;;;;;;14.11;97.79;100173.81;5039839;28;20073;-72
2021/09/25 00:28:07;;;;;;;6.45;4.40;;;;;;;14.09;98.31;100171.25;5049184;28;20045;-72
2021/09/25 00:30:34;;;;;;;7.20;4.25;;;;;;;14.08;98.16;100172.22;5057192;28;20037;-72
2021/09/25 00:33:00;;;;;;;7.47;4.65;;;;;;;14.05;98.28;100167.06;5055888;28;20037;-72
2021/09/25 00:35:27;;;;;;;10.95;5.15;;;;;;;14.03;98.57;100169.03;5054034;28;20037;-73
2021/09/25 00:37:54;;;;;;;5.97;4.53;;;;;;;14.01;98.69;100167.44;5055545;28;20725;-73
2021/09/25 00:40:21;;;;;;;6.70;4.68;;;;;;;14.05;98.58;100172.44;5057055;28;20094;-73
2021/09/25 00:42:48;;;;;;;8.25;4.90;;;;;;;14.04;98.64;100176.09;5056886;28;20381;-72
2021/09/25 00:45:18;;;;;;;11.00;4.90;;;;;;;14.05;98.37;100176.97;5055875;28;20052;-72
2021/09/25 00:47:47;;;;;;;8.30;5.05;;;;;;;14.05;98.57;100172.44;5052833;28;20053;-72
2021/09/25 00:50:15;;;;;;;9.18;5.13;;;;;;;14.05;98.50;100177.81;5056817;28;20327;-72
2021/09/25 00:52:42;;;;;;;6.07;4.82;;;;;;;13.93;98.75;100171.53;5056754;28;20037;-71
2021/09/25 00:55:13;;;;;;;6.68;4.68;;;;;;;13.98;98.79;100177.44;5055544;28;20041;-72
2021/09/25 00:57:41;;;;;;;6.13;4.80;;;;;;;13.98;98.81;100176.56;5056420;28;20430;-71
2021/09/25 01:00:08;;;;;;;7.97;5.43;;;;;;;13.93;99.10;100176.91;5056276;28;20335;-71
2021/09/25 01:02:35;;;;;;;7.95;5.95;;;;;;;13.96;98.93;100179.34;5048918;28;20393;-72
2021/09/25 01:05:04;;;;;;;7.70;5.10;;;;;;;13.94;99.02;100186.66;5055914;28;20136;-72
2021/09/25 01:07:31;;;;;;;8.45;4.97;;;;;;;13.94;99.37;100189.34;5040637;28;20346;-71
2021/09/25 01:09:58;;;;;;;13.73;6.05;;;;;;;13.87;99.41;100190.78;5037068;28;20068;-71
2021/09/25 01:12:25;;;;;;;7.30;5.10;;;;;;;13.86;99.34;100191.75;5056795;28;20488;-72
2021/09/25 01:14:52;;;;;;;8.82;5.50;;;;;;;13.84;99.76;100188.34;5056773;28;20058;-71
2021/09/25 01:17:20;;;;;;;10.27;5.95;;;;;;;13.80;100.00;100189.53;5056541;28;20075;-72
2021/09/25 01:19:47;;;;;;;7.18;5.22;;;;;;;13.80;100.00;100195.75;5055652;28;20052;-72
2021/09/25 01:22:14;;;;;;;9.70;6.05;;;;;;;13.78;100.00;100188.78;5055262;28;20037;-71
2021/09/25 01:24:41;;;;;;;9.73;5.93;;;;;;;13.73;100.00;100188.28;5039020;28;20082;-71
2021/09/25 01:27:08;;;;;;;8.43;6.18;;;;;;;13.70;100.00;100189.34;5055490;28;20519;-71
2021/09/25 01:29:35;;;;;;;9.30;6.68;;;;;;;13.67;100.00;100185.06;5055471;28;20048;-71
2021/09/25 01:32:02;;;;;;;8.48;6.28;;;;;;;13.68;100.00;100189.47;5056394;28;20045;-71
2021/09/25 01:34:29;;;;;;;11.30;6.63;;;;;;;13.63;100.00;100170.19;5054076;28;20044;-71
2021/09/25 01:36:56;;;;;;;9.23;6.38;;;;;;;13.58;100.00;100178.53;5044878;28;20115;-72
2021/09/25 01:39:23;;;;;;;9.75;6.35;;;;;;;13.68;100.00;100184.09;5052183;28;20076;-73
2021/09/25 01:41:50;;;;;;;10.10;6.47;;;;;;;13.64;100.00;100185.31;5056041;28;20041;-73
2021/09/25 01:44:17;;;;;;;9.25;6.32;;;;;;;13.61;100.00;100185.50;5036248;28;20073;-70
2021/09/25 01:46:44;;;;;;;13.30;6.32;;;;;;;13.54;100.00;100182.44;5036206;28;20043;-70
2021/09/25 01:49:11;;;;;;;10.68;6.82;;;;;;;13.54;100.00;100185.13;5035019;28;20161;-73
2021/09/25 01:51:38;;;;;;;12.20;5.90;;;;;;;13.51;100.00;100188.00;5035989;28;20053;-70
2021/09/25 01:54:05;;;;;;;11.70;6.75;;;;;;;13.47;100.00;100175.81;5034970;28;20493;-72
2021/09/25 01:56:35;;;;;;;12.10;6.20;;;;;;;13.42;100.00;100176.09;5035964;28;20454;-71
2021/09/25 01:59:02;;;;;;;8.57;6.43;;;;;;;13.44;100.00;100174.19;5034599;28;20045;-73
2021/09/25 02:01:28;;;;;;;10.52;6.45;;;;;;;13.47;100.00;100180.31;5035830;28;20080;-72
2021/09/25 02:03:56;;;;;;;12.02;7.47;;;;;;;13.44;100.00;100184.91;5035198;28;20045;-72
2021/09/25 02:06:23;;;;;;;8.90;6.22;;;;;;;13.54;100.00;100186.94;5034588;28;20045;-72
2021/09/25 02:08:50;;;;;;;12.77;6.90;;;;;;;13.47;100.00;100177.63;5034380;28;20052;-72
2021/09/25 02:11:17;;;;;;;11.20;7.10;;;;;;;13.44;100.00;100184.03;5034705;28;20351;-72
2021/09/25 02:13:44;;;;;;;11.13;7.00;;;;;;;13.41;100.00;100178.91;5035544;28;20049;-73
2021/09/25 02:16:14;;;;;;;9.27;7.18;;;;;;;13.39;100.00;100168.28;5035851;28;20045;-72
2021/09/25 02:18:42;;;;;;;13.25;8.70;;;;;;;13.45;100.00;100175.03;5035572;28;20415;-72
2021/09/25 02:21:09;;;;;;;11.45;8.27;;;;;;;13.44;100.00;100170.63;5034504;28;20073;-72
2021/09/25 02:23:37;;;;;;;9.95;7.28;;;;;;;13.33;100.00;100155.34;5035524;28;20057;-72
2021/09/25 02:26:05;;;;;;;11.13;7.88;;;;;;;13.42;100.00;100167.22;5035530;28;20041;-71
2021/09/25 02:28:33;;;;;;;12.20;7.38;;;;;;;13.42;100.00;100176.09;5035562;28;20072;-72
2021/09/25 02:31:01;;;;;;;13.60;7.22;;;;;;;13.41;100.00;100169.03;5035478;28;20060;-72
2021/09/25 02:33:27;;;;;;;10.93;7.50;;;;;;;13.41;100.00;100168.19;5034716;28;20136;-72
2021/09/25 02:35:55;;;;;;;13.43;8.32;;;;;;;13.46;100.00;100171.44;5052247;28;20052;-72
2021/09/25 02:38:21;;;;;;;16.05;8.10;;;;;;;13.43;100.00;100168.94;5055084;28;20354;-72
2021/09/25 02:40:48;;;;;;;12.57;8.98;;;;;;;13.47;100.00;100167.78;5037305;28;20055;-72
2021/09/25 02:43:15;;;;;;;13.15;8.40;;;;;;;13.47;100.00;100162.41;5042125;28;20315;-72
2021/09/25 02:45:42;;;;;;;12.18;8.32;;;;;;;13.42;100.00;100160.00;5035133;28;20439;-72
2021/09/25 02:48:09;;;;;;;14.60;8.75;;;;;;;13.43;100.00;100167.13;5034095;28;20095;-72
2021/09/25 02:50:36;;;;;;;10.82;8.52;;;;;;;13.41;100.00;100166.34;5035042;28;20045;-70
2021/09/25 02:53:05;;;;;;;13.75;8.32;;;;;;;13.37;100.00;100167.56;5018127;28;20382;-72
2021/09/25 02:55:32;;;;;;;15.48;9.57;;;;;;;13.35;100.00;100168.63;5034996;28;20053;-72
2021/09/25 02:57:59;;;;;;;13.23;9.02;;;;;;;13.34;100.00;100165.09;5035006;28;20041;-72
2021/09/25 03:00:26;;;;;;;13.40;9.45;;;;;;;13.34;100.00;100172.28;5033834;28;20049;-70
2021/09/25 03:02:52;;;;;;;14.90;9.10;;;;;;;13.34;100.00;100173.13;5035015;28;20045;-71
2021/09/25 03:05:20;;;;;;;15.32;9.10;;;;;;;13.39;100.00;100165.63;5033783;28;20037;-70
2021/09/25 03:07:47;;;;;;;12.98;8.75;;;;;;;13.28;100.00;100162.84;5033649;28;20049;-70
2021/09/25 03:10:15;;;;;;;15.73;10.00;;;;;;;13.31;100.00;100170.69;5034858;28;20037;-71
2021/09/25 03:12:42;;;;;;;13.50;8.95;;;;;;;13.29;100.00;100164.59;5033677;28;20171;-71
2021/09/25 03:15:09;;;;;;;16.70;9.60;;;;;;;13.33;100.00;100165.22;5034817;28;20521;-71
2021/09/25 03:17:36;;;;;;;17.20;10.40;;;;;;;13.30;100.00;100160.94;5034811;28;20041;-70
2021/09/25 03:20:05;;;;;;;16.33;10.55;;;;;;;13.25;100.00;100165.75;5033707;28;20053;-71
2021/09/25 03:22:32;;;;;;;15.30;9.77;;;;;;;13.26;100.00;100154.94;5033428;28;20056;-70
2021/09/25 03:25:07;;;;;;;15.93;9.23;;;;;;;13.28;100.00;100155.69;5034687;28;20132;-72
2021/09/25 03:27:38;;;;;;;14.10;9.80;;;;;;;13.33;100.00;100158.00;5033824;28;20045;-71
2021/09/25 03:30:07;;;;;;;15.52;9.98;;;;;;;13.46;100.00;100165.19;5034680;28;20060;-71
2021/09/25 03:32:34;;;;;;;15.45;9.75;;;;;;;13.46;100.00;100155.34;5033568;28;20045;-71
2021/09/25 03:35:02;;;;;;;16.65;10.15;;;;;;;13.45;100.00;100148.22;5045323;28;20056;-71
2021/09/25 03:37:28;;;;;;;18.55;10.05;;;;;;;13.51;100.00;100152.31;5036859;28;20053;-71
2021/09/25 03:39:55;;;;;;;16.08;9.93;;;;;;;13.55;100.00;100154.66;5053441;28;20041;-71
2021/09/25 03:42:22;;;;;;;16.98;11.05;;;;;;;13.57;100.00;100147.34;5049838;28;20037;-71
2021/09/25 03:44:49;;;;;;;19.77;10.80;;;;;;;13.55;100.00;100137.69;5034555;28;20050;-71
2021/09/25 03:47:16;;;;;;;16.17;10.35;;;;;;;13.62;100.00;100143.47;5020942;28;20387;-71
2021/09/25 03:49:42;;;;;;;16.52;10.48;;;;;;;13.70;100.00;100147.31;5038455;28;20052;-72
2021/09/25 03:52:09;;;;;;;15.88;10.23;;;;;;;13.73;100.00;100145.34;5037204;28;20037;-72
2021/09/25 03:54:36;;;;;;;17.23;10.68;;;;;;;13.73;100.00;100140.81;5037238;28;20427;-71
2021/09/25 03:57:03;;;;;;;16.08;10.20;;;;;;;13.66;100.00;100137.75;5020975;28;20095;-71
2021/09/25 03:59:30;;;;;;;15.07;10.15;;;;;;;13.78;100.00;100145.88;5037359;28;20364;-71
2021/09/25 04:01:57;;;;;;;17.75;11.48;;;;;;;13.75;100.00;100151.44;5037938;28;20358;-72
2021/09/25 04:04:25;;;;;;;18.85;10.35;;;;;;;13.81;100.00;100141.13;5038251;28;20149;-71
2021/09/25 04:06:52;;;;;;;15.32;9.40;;;;;;;13.84;100.00;100151.63;5037299;28;20045;-71
2021/09/25 04:09:18;;;;;;;17.50;9.90;;;;;;;13.87;100.00;100147.84;5037062;28;20041;-71
2021/09/25 04:11:48;;;;;;;14.40;9.40;;;;;;;13.83;100.00;100139.19;5037947;28;20431;-71
2021/09/25 04:14:17;;;;;;;15.27;9.43;;;;;;;13.84;100.00;100137.38;5037085;28;20047;-71
2021/09/25 04:16:45;;;;;;;14.65;9.57;;;;;;;13.85;100.00;100137.22;5036795;28;20323;-71
2021/09/25 04:19:13;;;;;;;15.73;9.48;;;;;;;13.87;100.00;100137.13;5037066;28;20055;-71
2021/09/25 04:21:39;;;;;;;17.05;10.00;;;;;;;13.87;100.00;100137.13;5037773;28;20377;-72
2021/09/25 04:24:06;;;;;;;15.73;9.27;;;;;;;13.83;100.00;100130.25;5053322;28;20441;-71
2021/09/25 04:26:33;;;;;;;15.00;9.90;;;;;;;13.92;100.00;100134.97;5037718;28;20041;-71
2021/09/25 04:29:00;;;;;;;13.93;9.55;;;;;;;13.91;100.00;100141.31;5037679;28;20049;-71
2021/09/25 04:31:27;;;;;;;16.70;9.88;;;;;;;13.92;100.00;100137.63;5036608;28;20045;-71
2021/09/25 04:33:54;;;;;;;18.45;10.63;;;;;;;13.95;100.00;100136.56;5049527;28;20045;-70
2021/09/25 04:36:21;;;;;;;15.10;10.05;;;;;;;13.96;100.00;100136.41;5056356;28;20052;-71
2021/09/25 04:38:48;;;;;;;13.25;10.05;;;;;;;13.95;100.00;100139.25;5056211;28;20199;-71
2021/09/25 04:41:14;;;;;;;12.60;9.45;;;;;;;13.95;100.00;100132.03;5057494;28;20132;-71
2021/09/25 04:43:41;;;;;;;15.77;9.10;;;;;;;13.91;100.00;100135.06;5052797;28;20334;-71
2021/09/25 04:46:08;;;;;;;13.45;9.05;;;;;;;13.90;100.00;100128.81;5037449;28;20045;-71
2021/09/25 04:48:35;;;;;;;13.25;9.23;;;;;;;13.92;100.00;100134.09;5037369;28;20049;-71
2021/09/25 04:51:02;;;;;;;14.27;9.35;;;;;;;13.89;100.00;100120.91;5037251;28;20057;-71
2021/09/25 04:53:30;;;;;;;14.95;9.57;;;;;;;13.88;100.00;100125.41;5019669;28;20058;-71
2021/09/25 04:55:58;;;;;;;12.50;7.93;;;;;;;13.89;100.00;100121.75;5035770;28;20049;-71
2021/09/25 04:58:29;;;;;;;15.57;8.70;;;;;;;13.89;100.00;100129.81;5036903;28;20050;-71
2021/09/25 05:00:56;;;;;;;13.57;8.65;;;;;;;13.80;100.00;100130.50;5035956;28;20049;-71
2021/09/25 05:03:24;;;;;;;14.70;8.48;;;;;;;13.83;100.00;100130.25;5036976;28;20498;-71
2021/09/25 05:05:51;;;;;;;15.32;8.75;;;;;;;13.84;100.00;100138.22;5036964;28;20095;-71
2021/09/25 05:08:19;;;;;;;12.55;7.93;;;;;;;13.87;100.00;100141.63;5036890;28;20045;-72
2021/09/25 05:10:45;;;;;;;10.77;8.02;;;;;;;13.82;100.00;100128.56;5036943;28;20430;-71
2021/09/25 05:13:12;;;;;;;14.20;9.32;;;;;;;13.83;100.00;100138.31;5036848;28;20120;-70
2021/09/25 05:15:39;;;;;;;15.00;8.73;;;;;;;13.78;100.00;100137.84;5036921;28;20059;-70
2021/09/25 05:18:06;;;;;;;11.20;8.05;;;;;;;13.67;100.00;100120.69;5036783;28;20145;-71
2021/09/25 05:20:33;;;;;;;11.27;8.70;;;;;;;13.78;100.00;100135.16;5053397;28;20365;-73
2021/09/25 05:22:59;;;;;;;14.25;8.65;;;;;;;13.76;100.00;100139.75;5054851;28;20056;-76
2021/09/25 05:25:26;;;;;;;11.23;7.82;;;;;;;13.74;100.00;100137.22;5055025;28;20386;-75
2021/09/25 05:27:53;;;;;;;11.25;7.70;;;;;;;13.70;100.00;100133.91;5054597;28;20045;-75
2021/09/25 05:30:20;;;;;;;12.30;7.70;;;;;;;13.77;100.00;100152.22;5052275;28;20052;-73
2021/09/25 05:32:50;;;;;;;11.25;7.32;;;;;;;13.79;100.00;100152.94;5056380;28;20465;-75
2021/09/25 05:35:16;;;;;;;11.25;7.55;;;;;;;13.77;100.00;100157.59;5043160;28;20450;-70
2021/09/25 05:37:43;;;;;;;10.23;7.60;;;;;;;13.75;100.00;100159.50;5035058;28;20144;-72
2021/09/25 05:40:11;;;;;;;10.57;7.35;;;;;;;13.73;100.00;100151.56;5051838;28;20441;-73
2021/09/25 05:42:38;;;;;;;10.25;7.38;;;;;;;13.69;100.00;100147.41;5042888;28;20033;-72
2021/09/25 05:45:07;;;;;;;11.68;7.60;;;;;;;13.69;100.00;100150.94;5036685;28;20065;-70
2021/09/25 05:47:34;;;;;;;14.60;8.20;;;;;;;13.80;100.00;100158.22;5055945;28;20048;-73
2021/09/25 05:50:00;;;;;;;11.65;7.78;;;;;;;13.81;100.00;100142.94;5054147;28;20044;-75
2021/09/25 05:52:27;;;;;;;11.73;7.13;;;;;;;13.82;100.00;100144.66;5044904;28;20434;-76
2021/09/25 05:54:56;;;;;;;10.13;7.63;;;;;;;13.82;100.00;100140.16;5055696;28;20212;-79
2021/09/25 05:57:24;;;;;;;8.98;6.90;;;;;;;13.91;100.00;100143.97;5053077;28;20449;-72
2021/09/25 05:59:51;;;;;;;12.02;7.72;;;;;;;13.86;100.00;100135.41;5050360;28;20045;-79
2021/09/25 06:02:18;;;;;;;10.43;6.97;;;;;;;13.85;100.00;100141.75;5055494;28;20044;-75
2021/09/25 06:04:46;;;;;;;10.90;7.35;;;;;;;13.88;100.00;100146.88;5038197;28;20128;-75
2021/09/25 06:07:15;;;;;;;16.42;8.07;;;;;;;13.84;100.00;100153.47;5048694;28;20049;-78
2021/09/25 06:09:42;;;;;;;9.85;7.45;;;;;;;13.85;100.00;100156.00;5049588;28;20049;-75
2021/09/25 06:12:10;;;;;;;9.27;7.07;;;;;;;13.74;100.00;100145.25;5055443;28;20041;-74
2021/09/25 06:14:38;;;;;;;9.63;7.32;;;;;;;13.87;100.00;100161.28;5036520;28;20446;-73
2021/09/25 06:17:05;;;;;;;10.30;6.85;;;;;;;13.86;100.00;100156.88;5044768;28;20044;-71
2021/09/25 06:19:32;;;;;;;11.38;7.75;;;;;;;13.86;100.00;100151.50;5045142;28;20044;-71
2021/09/25 06:21:59;;;;;;;14.77;7.35;;;;;;;13.92;100.00;100158.22;5047264;28;20053;-73
2021/09/25 06:24:26;;;;;;;10.05;7.53;;;;;;;13.93;100.00;100158.13;5054672;28;20041;-71
2021/09/25 06:26:53;;;;;;;12.45;7.13;;;;;;;13.97;100.00;100151.56;5043854;28;20041;-71
2021/09/25 06:29:20;;;;;;;16.13;7.85;;;;;;;14.02;100.00;100161.09;5049179;28;20041;-72
2021/09/25 06:31:47;;;;;;;11.80;7.63;;;;;;;14.03;100.00;100163.66;5054758;28;20036;-73
2021/09/25 06:34:14;;;;;;;9.45;6.97;;;;;;;14.10;100.00;100158.66;5047122;28;20079;-73
2021/09/25 06:36:41;;;;;;;9.90;7.05;;;;;;;14.10;100.00;100166.72;5044606;28;20044;-74
2021/09/25 06:39:09;;;;;;;11.23;7.10;;;;;;;14.15;100.00;100166.41;5049018;28;20048;-74
2021/09/25 06:41:36;;;;;;;9.57;6.28;;;;;;;14.16;100.00;100162.72;5061001;28;20455;-72
2021/09/25 06:44:04;;;;;;;13.20;7.28;;;;;;;14.21;100.00;100168.56;5043423;28;20346;-71
2021/09/25 06:46:32;;;;;;;9.50;6.90;;;;;;;14.26;100.00;100175.31;5042438;28;20754;-72
2021/09/25 06:48:59;;;;;;;11.75;6.85;;;;;;;14.37;99.59;100169.13;5059889;28;20045;-71
2021/09/25 06:51:27;;;;;;;12.50;6.93;;;;;;;14.42;98.72;100166.09;5048358;28;20403;-71
2021/09/25 06:53:54;;;;;;;8.93;6.20;;;;;;;14.52;98.82;100182.34;5048709;28;20037;-72
2021/09/25 06:56:23;;;;;;;11.20;7.25;;;;;;;14.59;98.91;100183.56;5051146;28;20044;-74
2021/09/25 06:58:50;;;;;;;11.73;6.82;;;;;;;14.67;98.09;100174.94;5050922;28;20098;-74
2021/09/25 07:01:17;;;;;;;12.70;7.20;;;;;;;14.65;98.01;100176.84;5034570;28;20048;-71
2021/09/25 07:03:44;;;;;;;12.00;6.32;;;;;;;14.53;97.95;100152.69;5046798;28;20044;-75
2021/09/25 07:06:11;;;;;;;13.80;7.30;;;;;;;14.67;97.53;100173.09;5044128;28;20040;-74
2021/09/25 07:08:38;;;;;;;10.10;6.40;;;;;;;14.69;97.55;100170.28;5044506;28;20056;-74
2021/09/25 07:11:05;;;;;;;9.05;6.40;;;;;;;14.58;98.19;100163.06;5052089;28;20064;-77
2021/09/25 07:13:32;;;;;;;11.23;5.95;;;;;;;14.64;97.88;100173.34;5048711;28;20045;-75
2021/09/25 07:15:59;;;;;;;11.10;6.13;;;;;;;14.67;98.00;100172.25;5050543;28;20102;-73
2021/09/25 07:18:26;;;;;;;8.25;6.20;;;;;;;14.72;97.64;100175.44;5053628;28;20049;-79
2021/09/25 07:20:52;;;;;;;8.85;5.70;;;;;;;14.75;97.73;100171.66;5056548;28;20410;-76
2021/09/25 07:23:19;;;;;;;10.45;5.95;;;;;;;14.75;97.72;100177.91;5060009;28;20072;-75
2021/09/25 07:25:46;;;;;;;8.13;6.10;;;;;;;14.77;97.40;100181.31;5057064;28;20127;-78
2021/09/25 07:28:13;;;;;;;13.55;6.22;;;;;;;14.78;97.91;100172.28;5071068;28;20434;-77
2021/09/25 07:30:41;;;;;;;10.30;6.03;;;;;;;14.82;97.30;100180.09;5049913;28;20055;-75
2021/09/25 07:33:08;;;;;;;9.63;6.50;;;;;;;14.84;97.87;100180.81;5053547;28;20037;-75
2021/09/25 07:35:36;;;;;;;8.95;5.75;;;;;;;14.88;97.97;100182.31;5051463;28;20040;-70
2021/09/25 07:38:05;;;;;;;10.77;6.30;;;;;;;14.93;97.99;100180.97;5051335;28;20056;-79
2021/09/25 07:40:33;;;;;;;9.32;6.05;;;;;;;14.99;97.46;100176.06;5044619;28;20059;-79
2021/09/25 07:43:00;;;;;;;9.05;6.43;;;;;;;15.13;96.19;100172.28;5058863;28;20392;-75
2021/09/25 07:45:27;;;;;;;9.93;6.38;;;;;;;15.12;96.19;100184.00;5023452;28;20350;-75
2021/09/25 07:47:55;;;;;;;11.85;7.03;;;;;;;15.16;96.15;100185.47;5055719;28;20037;-77
2021/09/25 07:50:22;;;;;;;9.73;6.88;;;;;;;15.19;96.81;100182.53;5056319;28;20053;-75
2021/09/25 07:52:49;;;;;;;9.68;6.75;;;;;;;15.19;97.13;100188.78;5072639;28;20481;-75
2021/09/25 07:55:17;;;;;;;10.32;7.53;;;;;;;15.19;97.34;100190.59;5054058;28;20041;-74
2021/09/25 07:57:43;;;;;;;8.55;6.72;;;;;;;15.28;96.80;100192.56;5059962;28;20098;-75
2021/09/25 08:00:13;;;;;;;13.23;6.90;;;;;;;15.39;96.48;100190.81;5050133;28;20337;-75
2021/09/25 08:02:40;;;;;;;12.73;7.82;;;;;;;15.44;96.22;100199.38;5061468;28;20064;-74
2021/09/25 08:05:10;;;;;;;10.25;6.95;;;;;;;15.54;95.52;100197.69;5046160;28;20048;-75
2021/09/25 08:07:37;;;;;;;10.05;6.70;;;;;;;15.51;96.25;100191.69;5045212;28;20073;-77
2021/09/25 08:10:06;;;;;;;11.13;7.15;;;;;;;15.63;95.03;100206.81;5042703;28;20050;-73
2021/09/25 08:12:34;;;;;;;12.27;7.28;;;;;;;15.68;95.58;100204.59;5046007;28;20100;-69
2021/09/25 08:15:03;;;;;;;11.10;7.45;;;;;;;15.80;94.77;100215.34;5048617;28;20140;-69
2021/09/25 08:17:29;;;;;;;16.23;7.88;;;;;;;15.73;95.38;100206.91;5046286;28;20064;-72
2021/09/25 08:19:56;;;;;;;11.52;7.47;;;;;;;15.77;95.11;100219.13;5045816;28;20500;-69
2021/09/25 08:22:23;;;;;;;14.52;7.80;;;;;;;15.88;94.90;100220.94;5059154;28;20041;-70
2021/09/25 08:24:51;;;;;;;12.35;7.10;;;;;;;15.92;95.44;100232.34;5046878;28;20049;-70
2021/09/25 08:27:19;;;;;;;14.35;7.35;;;;;;;15.96;94.74;100228.41;5054500;28;20075;-71
2021/09/25 08:29:46;;;;;;;9.90;6.82;;;;;;;15.98;95.51;100215.69;5055527;28;20092;-70
2021/09/25 08:32:13;;;;;;;10.60;7.10;;;;;;;16.17;94.26;100224.91;5060042;28;20118;-71
2021/09/25 08:34:40;;;;;;;11.50;7.40;;;;;;;16.26;93.81;100229.53;5046593;28;20382;-72
2021/09/25 08:37:07;;;;;;;9.88;7.60;;;;;;;16.35;93.38;100233.28;5052146;28;20136;-70
2021/09/25 08:39:34;;;;;;;11.07;7.97;;;;;;;16.41;93.71;100243.53;5044141;28;20052;-75
2021/09/25 08:42:01;;;;;;;11.68;7.93;;;;;;;16.47;93.67;100239.47;5040903;28;20041;-71
2021/09/25 08:44:30;;;;;;;12.23;8.25;;;;;;;16.51;92.51;100241.75;5036234;28;20048;-72
2021/09/25 08:47:00;;;;;;;12.45;7.45;;;;;;;16.59;92.10;100235.72;5055851;28;20045;-74
2021/09/25 08:49:27;;;;;;;13.35;8.02;;;;;;;16.67;91.54;100232.38;5056660;28;20346;-73
2021/09/25 08:51:54;;;;;;;11.57;6.40;;;;;;;16.74;91.67;100232.69;5048218;28;20041;-74
2021/09/25 08:54:21;;;;;;;11.15;6.78;;;;;;;16.78;91.02;100239.56;5056962;28;20430;-73
2021/09/25 08:56:47;;;;;;;9.27;6.85;;;;;;;16.83;90.30;100232.75;5055299;28;20053;-74
2021/09/25 08:59:14;;;;;;;11.43;7.40;;;;;;;16.96;88.33;100235.22;5070216;28;20048;-74
2021/09/25 09:01:43;;;;;;;8.90;6.30;;;;;;;17.02;89.02;100223.13;5040885;28;20487;-73
2021/09/25 09:04:11;;;;;;;7.05;5.35;;;;;;;17.14;87.65;100228.41;5055338;28;20049;-71
2021/09/25 09:06:39;;;;;;;10.52;7.10;;;;;;;17.20;85.59;100234.13;5054833;28;20049;-72
2021/09/25 09:09:09;;;;;;;9.15;5.93;;;;;;;17.33;86.31;100227.66;5047479;28;20041;-72
2021/09/25 09:11:42;;;;;;;10.73;5.55;;;;;;;17.37;85.35;100227.22;5053085;28;20052;-73
2021/09/25 09:14:13;;;;;;;8.88;5.82;;;;;;;17.47;84.64;100240.75;5047091;28;20423;-74
2021/09/25 09:16:40;;;;;;;15.95;5.90;;;;;;;17.54;84.80;100232.13;5042485;28;20111;-73
2021/09/25 09:19:07;;;;;;;9.38;6.47;;;;;;;17.67;84.08;100235.41;5053464;28;20502;-72
2021/09/25 09:21:34;;;;;;;11.98;6.00;;;;;;;17.69;83.36;100229.88;5045712;28;20049;-75
2021/09/25 09:24:08;;;;;;;9.43;6.05;;;;;;;17.84;82.01;100235.72;5057367;28;20041;-71
2021/09/25 09:26:37;;;;;;;13.05;6.32;;;;;;;17.86;81.97;100229.19;5046056;28;20046;-77
2021/09/25 09:29:08;;;;;;;9.32;5.70;;;;;;;17.96;81.01;100228.34;5054835;28;20040;-72
2021/09/25 09:31:36;;;;;;;;;;;;;;;18.05;80.29;100228.38;5041035;28;20335;-71
2021/09/25 09:34:05;;;;;;;10.90;5.90;;;;;;;18.14;80.57;100231.25;5047148;28;19921;-72
2021/09/25 09:36:50;;;;;;;12.98;6.60;;;;;;;18.14;80.87;100226.69;5040813;28;20103;-73
2021/09/25 09:39:20;;;;;;;9.52;5.47;;;;;;;18.15;82.12;100222.16;5057731;28;20045;-71
2021/09/25 09:41:53;;;;;;;12.52;6.10;;;;;;;18.29;80.62;100226.25;5025712;28;20050;-70
2021/09/25 09:44:24;;;;;;;13.93;6.70;;;;;;;18.37;80.02;100223.72;5053935;28;20037;-73
2021/09/25 09:46:53;;;;;;;11.95;6.35;;;;;;;18.41;79.31;100227.00;5047492;28;20127;-70
2021/09/25 09:49:23;;;;;;;10.40;6.47;;;;;;;18.41;79.14;100225.13;5049233;28;20076;-71
2021/09/25 09:51:55;;;;;;;8.40;6.32;;;;;;;18.61;80.18;100225.09;5041459;28;20045;-72
2021/09/25 09:54:31;;;;;;;10.48;6.82;;;;;;;18.72;78.60;100224.94;5041441;28;20029;-71
2021/09/25 09:57:08;;;;;;;9.77;6.40;;;;;;;18.78;78.95;100228.09;5052748;28;20051;-70
2021/09/25 09:59:36;;;;;;;14.20;7.95;;;;;;;18.91;77.80;100223.19;5044555;28;20430;-69
2021/09/25 10:02:04;;;;;;;13.07;8.48;;;;;;;18.85;77.37;100207.56;5042878;28;20033;-72
2021/09/25 10:04:32;;;;;;;15.70;8.82;;;;;;;18.89;77.40;100224.34;5054434;28;20045;-71
2021/09/25 10:06:59;;;;;;;15.32;8.10;;;;;;;18.93;76.00;100214.94;5050497;28;20045;-76
2021/09/25 10:09:29;;;;;;;12.02;7.40;;;;;;;19.11;76.08;100215.03;5040718;28;20096;-74
2021/09/25 10:12:04;;;;;;;15.53;9.03;;;;;;;19.20;74.85;100216.88;5049192;28;20112;-75
2021/09/25 10:14:34;;;;;;;15.60;7.72;;;;;;;19.25;76.55;100205.59;5070625;28;20343;-72
2021/09/25 10:17:06;;;;;;;12.98;7.28;;;;;;;19.40;76.25;100212.19;5049935;28;20120;-72
2021/09/25 10:19:34;;;;;;;10.88;6.53;;;;;;;19.60;73.66;100213.97;5037395;28;20099;-69
2021/09/25 10:22:11;;;;;;;9.35;6.45;;;;;;;19.72;71.68;100209.19;5044682;28;20059;-73
2021/09/25 10:24:45;;;;;;;10.23;6.45;;;;;;;19.82;71.07;100218.09;5043246;28;20041;-73
2021/09/25 10:27:15;;;;;;;9.68;6.00;;;;;;;19.74;70.37;100207.16;5057418;28;20064;-70
2021/09/25 10:29:48;;;;;;;10.68;6.93;;;;;;;19.72;69.60;100209.19;5038472;28;20116;-70
2021/09/25 10:32:30;;;;;;;13.13;7.20;;;;;;;19.80;69.66;100206.56;5037669;28;20430;-72
2021/09/25 10:35:18;;;;;;;10.73;7.15;;;;;;;20.04;69.73;100202.44;5043297;28;20037;-75
2021/09/25 10:37:53;;;;;;;12.85;6.70;;;;;;;20.26;68.38;100200.25;5042442;28;20434;-72
2021/09/25 10:40:42;;;;;;;10.63;6.13;;;;;;;20.41;68.17;100198.69;5040328;28;20330;-75
2021/09/25 10:43:16;;;;;;;8.77;6.18;;;;;;;20.43;67.79;100212.91;5050606;28;20045;-75
2021/09/25 10:45:46;;;;;;;8.73;5.90;;;;;;;20.38;64.99;100209.84;5053563;28;20037;-72
2021/09/25 10:48:22;;;;;;;9.60;6.30;;;;;;;20.46;65.58;100195.50;5044720;28;20068;-71
2021/09/25 10:50:59;;;;;;;11.43;6.20;;;;;;;20.62;65.21;100200.19;5047347;28;20041;-75
2021/09/25 10:53:36;;;;;;;10.10;6.20;;;;;;;20.75;65.46;100200.63;5046900;28;20041;-80
2021/09/25 10:56:16;;;;;;;8.38;6.07;;;;;;;21.00;66.04;100203.53;5041581;28;20045;-84
2021/09/25 10:58:59;;;;;;;10.23;6.63;;;;;;;21.08;64.16;100188.28;5050366;28;20049;-78
2021/09/25 11:01:41;;;;;;;10.23;6.43;;;;;;;21.11;63.18;100196.97;5042334;28;20049;-83
2021/09/25 11:04:19;;;;;;;11.02;5.63;;;;;;;21.14;64.50;100187.66;5054864;28;20119;-75
2021/09/25 11:06:56;;;;;;;13.80;7.35;;;;;;;21.27;62.86;100176.31;5043558;28;20045;-78
2021/09/25 11:09:39;;;;;;;12.75;6.05;;;;;;;21.39;62.95;100163.28;5045628;28;20048;-81
2021/09/25 11:12:09;;;;;;;9.93;6.15;;;;;;;21.62;62.37;100174.41;5052953;28;20037;-70
2021/09/25 11:14:39;;;;;;;;;;;;;;;21.70;62.34;100171.72;5050158;28;20041;-76
2021/09/25 11:17:10;;;;;;;8.38;5.32;;;;;;;21.71;61.55;100172.59;5049277;28;20229;-74
2021/09/25 11:19:36;;;;;;;9.10;5.35;;;;;;;21.86;62.83;100174.66;5051983;28;20059;-74
2021/09/25 11:22:10;;;;;;;11.40;5.75;;;;;;;21.91;61.90;100175.00;5066329;28;20041;-74